Time;durP1;ratioP1;P1;durP2;ratioP2;P2;SDS_P1;SDS_P2;PMS_P1;PMS_P2;Temp;Humidity;BMP_temperature;BMP_pressure;BME280_temperature;BME280_humidity;BME280_pressure;Samples;Min_cycle;Max_cycle;Signal;HPM_P1;HPM_P2
2023/08/09 00:02:20;;;;;;;3.40;1.57;;;;;;;;;;4935034;29;20462;-71
2023/08/09 00:04:48;;;;;;;2.23;1.37;;;;;;;;;;4933870;29;20476;-71
2023/08/09 00:07:15;;;;;;;3.10;1.03;;;;;;;;;;4931527;29;20470;-70
2023/08/09 00:09:42;;;;;;;2.30;1.20;;;;;;;;;;4933113;29;20471;-71
2023/08/09 00:12:09;;;;;;;1.57;1.00;;;;;;;;;;4934654;29;20492;-71
2023/08/09 00:14:36;;;;;;;2.27;1.20;;;;;;;;;;4934192;29;20468;-71
2023/08/09 00:17:04;;;;;;;1.90;1.20;;;;;;;;;;4936180;29;20625;-72
2023/08/09 00:19:32;;;;;;;2.47;1.20;;;;;;;;;;4934967;29;20452;-72
2023/08/09 00:21:59;;;;;;;1.63;1.00;;;;;;;;;;4932175;29;20484;-71
2023/08/09 00:24:26;;;;;;;3.13;0.97;;;;;;;;;;4934816;29;20484;-71
2023/08/09 00:26:54;;;;;;;1.73;0.97;;;;;;;;;;4932386;29;20575;-71
2023/08/09 00:29:21;;;;;;;2.03;1.03;;;;;;;;;;4934775;29;20460;-71
2023/08/09 00:31:48;;;;;;;2.20;1.20;;;;;;;;;;4934269;29;20479;-73
2023/08/09 00:34:16;;;;;;;1.70;0.90;;;;;;;;;;4930752;29;20459;-71
2023/08/09 00:36:44;;;;;;;3.00;1.50;;;;;;;;;;4930671;29;20546;-71
2023/08/09 00:39:11;;;;;;;1.97;1.03;;;;;;;;;;4929807;29;20456;-71
2023/08/09 00:41:38;;;;;;;2.60;1.20;;;;;;;;;;4930552;29;20482;-71
2023/08/09 00:44:06;;;;;;;2.70;1.13;;;;;;;;;;4933050;29;20574;-71
2023/08/09 00:46:33;;;;;;;1.90;1.20;;;;;;;;;;4933604;29;20543;-71
2023/08/09 00:49:01;;;;;;;2.63;1.57;;;;;;;;;;4931954;29;20914;-71
2023/08/09 00:51:28;;;;;;;1.93;0.90;;;;;;;;;;4934650;29;20981;-71
2023/08/09 00:53:57;;;;;;;1.70;0.80;;;;;;;;;;4932402;29;20539;-71
2023/08/09 00:56:24;;;;;;;1.80;0.80;;;;;;;;;;4936641;29;20535;-71
2023/08/09 00:58:51;;;;;;;1.87;1.10;;;;;;;;;;4936370;29;20452;-71
2023/08/09 01:01:18;;;;;;;1.80;0.90;;;;;;;;;;4934913;29;20487;-71
2023/08/09 01:03:44;;;;;;;1.90;1.00;;;;;;;;;;4932368;29;20923;-71
2023/08/09 01:06:14;;;;;;;4.70;1.40;;;;;;;;;;4932336;29;20463;-71
2023/08/09 01:08:45;;;;;;;1.80;1.10;;;;;;;;;;4935191;29;20468;-71
2023/08/09 01:11:17;;;;;;;2.30;1.20;;;;;;;;;;4935172;29;20549;-71
2023/08/09 01:13:46;;;;;;;2.07;1.20;;;;;;;;;;4932219;29;20540;-70
2023/08/09 01:16:13;;;;;;;2.20;1.33;;;;;;;;;;4936070;29;20535;-71
2023/08/09 01:18:42;;;;;;;2.03;1.13;;;;;;;;;;4934334;29;20452;-71
2023/08/09 01:21:09;;;;;;;4.27;1.10;;;;;;;;;;4933361;29;20424;-71
2023/08/09 01:23:38;;;;;;;1.60;0.80;;;;;;;;;;4933223;29;20459;-73
2023/08/09 01:26:05;;;;;;;2.10;1.10;;;;;;;;;;4934649;29;20978;-71
2023/08/09 01:28:33;;;;;;;1.70;1.00;;;;;;;;;;4933620;29;20876;-71
2023/08/09 01:31:00;;;;;;;2.10;1.00;;;;;;;;;;4930911;29;20452;-71
2023/08/09 01:33:27;;;;;;;2.17;1.23;;;;;;;;;;4932335;29;20554;-71
2023/08/09 01:35:57;;;;;;;2.93;1.60;;;;;;;;;;4933267;29;20537;-71
2023/08/09 01:38:26;;;;;;;1.90;1.27;;;;;;;;;;4931522;29;20472;-71
2023/08/09 01:40:55;;;;;;;2.73;1.20;;;;;;;;;;4931247;29;20467;-71
2023/08/09 01:43:23;;;;;;;2.03;1.00;;;;;;;;;;4932692;29;20600;-70
2023/08/09 01:45:50;;;;;;;2.97;1.10;;;;;;;;;;4930986;29;21084;-71
2023/08/09 01:48:17;;;;;;;2.50;1.20;;;;;;;;;;4931271;29;20459;-70
2023/08/09 01:50:45;;;;;;;1.90;1.10;;;;;;;;;;4932938;29;20543;-70
2023/08/09 01:53:12;;;;;;;1.73;1.17;;;;;;;;;;4937087;29;20825;-71
2023/08/09 01:55:40;;;;;;;2.17;1.30;;;;;;;;;;4937785;29;20451;-71
2023/08/09 01:58:09;;;;;;;2.40;1.43;;;;;;;;;;4935553;29;20470;-71
2023/08/09 02:00:37;;;;;;;3.30;1.50;;;;;;;;;;4934890;29;20467;-72
2023/08/09 02:03:06;;;;;;;2.20;1.00;;;;;;;;;;4937682;29;20467;-72
2023/08/09 02:05:33;;;;;;;1.87;0.93;;;;;;;;;;4935070;29;21052;-71
2023/08/09 02:08:01;;;;;;;2.00;1.10;;;;;;;;;;4936591;29;20459;-71
2023/08/09 02:10:28;;;;;;;2.70;1.10;;;;;;;;;;4937325;29;20563;-71
2023/08/09 02:12:55;;;;;;;2.73;1.40;;;;;;;;;;4938844;29;20966;-70
2023/08/09 02:15:24;;;;;;;1.90;0.90;;;;;;;;;;4934436;29;20503;-71
2023/08/09 02:17:52;;;;;;;2.37;0.93;;;;;;;;;;4935496;28;20444;-71
2023/08/09 02:20:20;;;;;;;2.67;1.20;;;;;;;;;;4935377;29;20554;-72
2023/08/09 02:22:48;;;;;;;2.40;1.23;;;;;;;;;;4934881;29;20479;-71
2023/08/09 02:25:15;;;;;;;2.13;1.37;;;;;;;;;;4935685;28;21001;-71
2023/08/09 02:27:42;;;;;;;3.10;1.13;;;;;;;;;;4937922;29;20656;-71
2023/08/09 02:30:11;;;;;;;3.50;1.23;;;;;;;;;;4934485;29;20444;-71
2023/08/09 02:32:40;;;;;;;2.43;1.20;;;;;;;;;;4936807;29;20479;-73
2023/08/09 02:35:08;;;;;;;2.30;0.97;;;;;;;;;;4935373;29;20879;-73
2023/08/09 02:37:35;;;;;;;2.23;0.90;;;;;;;;;;4936332;29;20458;-71
2023/08/09 02:40:02;;;;;;;3.40;1.30;;;;;;;;;;4936286;29;20449;-72
2023/08/09 02:42:29;;;;;;;2.13;1.17;;;;;;;;;;4935453;29;20475;-73
2023/08/09 02:44:57;;;;;;;1.77;1.07;;;;;;;;;;4936265;29;20480;-71
2023/08/09 02:47:24;;;;;;;2.00;1.27;;;;;;;;;;4938594;29;20535;-71
2023/08/09 02:49:53;;;;;;;2.17;1.30;;;;;;;;;;4936742;29;20475;-70
2023/08/09 02:52:20;;;;;;;2.00;1.00;;;;;;;;;;4936680;29;20484;-71
2023/08/09 02:54:48;;;;;;;4.33;1.10;;;;;;;;;;4934396;29;20551;-72
2023/08/09 02:57:16;;;;;;;2.20;1.20;;;;;;;;;;4933085;29;20874;-72
2023/08/09 02:59:43;;;;;;;4.33;1.57;;;;;;;;;;4935830;29;20464;-72
2023/08/09 03:02:10;;;;;;;1.90;1.10;;;;;;;;;;4937815;29;20847;-70
2023/08/09 03:04:37;;;;;;;2.40;1.40;;;;;;;;;;4935678;29;21076;-72
2023/08/09 03:07:06;;;;;;;2.50;1.30;;;;;;;;;;4935956;29;20467;-72
2023/08/09 03:09:34;;;;;;;2.73;1.27;;;;;;;;;;4936879;29;20541;-72
2023/08/09 03:12:01;;;;;;;2.33;1.13;;;;;;;;;;4935634;29;20487;-72
2023/08/09 03:14:29;;;;;;;1.83;1.10;;;;;;;;;;4936340;29;20463;-72
2023/08/09 03:16:57;;;;;;;1.80;1.20;;;;;;;;;;4933023;29;20491;-72
2023/08/09 03:19:24;;;;;;;1.87;1.10;;;;;;;;;;4939175;29;20490;-72
2023/08/09 03:21:52;;;;;;;2.03;1.03;;;;;;;;;;4944231;29;20486;-72
2023/08/09 03:24:20;;;;;;;2.13;1.03;;;;;;;;;;4936026;29;20567;-72
2023/08/09 03:26:47;;;;;;;2.93;1.60;;;;;;;;;;4933434;29;20474;-70
2023/08/09 03:29:15;;;;;;;2.07;1.03;;;;;;;;;;4937329;29;20465;-68
2023/08/09 03:31:42;;;;;;;2.30;1.10;;;;;;;;;;4933984;29;20488;-68
2023/08/09 03:34:10;;;;;;;4.03;1.33;;;;;;;;;;4935859;29;20444;-68
2023/08/09 03:36:37;;;;;;;1.83;1.03;;;;;;;;;;4933272;29;20895;-68
2023/08/09 03:39:04;;;;;;;1.90;0.93;;;;;;;;;;4935785;29;20562;-68
2023/08/09 03:41:32;;;;;;;2.00;1.20;;;;;;;;;;4933511;29;20844;-68
2023/08/09 03:44:00;;;;;;;1.83;0.87;;;;;;;;;;4934527;29;20843;-68
2023/08/09 03:46:28;;;;;;;2.40;1.40;;;;;;;;;;4933737;29;20480;-68
2023/08/09 03:48:55;;;;;;;2.20;1.10;;;;;;;;;;4932342;29;20493;-68
2023/08/09 03:51:22;;;;;;;2.43;1.33;;;;;;;;;;4932096;29;20483;-68
2023/08/09 03:53:49;;;;;;;1.90;1.03;;;;;;;;;;4935860;29;20889;-68
2023/08/09 03:56:16;;;;;;;2.20;1.20;;;;;;;;;;4932026;29;21224;-68
2023/08/09 03:58:45;;;;;;;1.80;0.97;;;;;;;;;;4930957;29;20464;-68
2023/08/09 04:01:12;;;;;;;2.27;1.10;;;;;;;;;;4933001;29;20460;-68
2023/08/09 04:03:39;;;;;;;2.13;0.90;;;;;;;;;;4929824;29;20531;-67
2023/08/09 04:06:06;;;;;;;2.37;1.30;;;;;;;;;;4933358;29;20480;-67
2023/08/09 04:08:34;;;;;;;2.20;1.27;;;;;;;;;;4931480;29;20468;-69
2023/08/09 04:11:01;;;;;;;4.37;1.27;;;;;;;;;;4933916;29;20574;-67
2023/08/09 04:13:28;;;;;;;2.07;1.17;;;;;;;;;;4937355;28;20469;-67
2023/08/09 04:15:57;;;;;;;3.03;1.33;;;;;;;;;;4933228;29;20491;-66
2023/08/09 04:18:24;;;;;;;2.37;1.10;;;;;;;;;;4934949;29;20467;-67
2023/08/09 04:20:51;;;;;;;1.80;0.97;;;;;;;;;;4935425;29;20538;-68
2023/08/09 04:23:19;;;;;;;2.83;1.30;;;;;;;;;;4937420;29;20574;-67
2023/08/09 04:25:46;;;;;;;1.90;0.97;;;;;;;;;;4935518;29;20482;-68
2023/08/09 04:28:13;;;;;;;2.13;1.30;;;;;;;;;;4935677;28;20553;-68
2023/08/09 04:30:41;;;;;;;3.27;1.10;;;;;;;;;;4932917;29;20464;-69
2023/08/09 04:33:09;;;;;;;2.43;1.10;;;;;;;;;;4935456;28;20547;-68
2023/08/09 04:35:37;;;;;;;2.27;1.30;;;;;;;;;;4932937;29;20451;-68
2023/08/09 04:38:05;;;;;;;2.53;1.10;;;;;;;;;;4934311;29;20463;-66
2023/08/09 04:40:32;;;;;;;3.00;1.10;;;;;;;;;;4935070;29;20558;-67
2023/08/09 04:43:00;;;;;;;1.90;1.00;;;;;;;;;;4935586;29;20531;-68
2023/08/09 04:45:27;;;;;;;2.00;1.30;;;;;;;;;;4936798;29;20484;-67
2023/08/09 04:47:55;;;;;;;2.10;0.80;;;;;;;;;;4931614;28;20586;-67
2023/08/09 04:50:24;;;;;;;2.70;1.07;;;;;;;;;;4934014;29;20455;-67
2023/08/09 04:52:51;;;;;;;2.23;0.97;;;;;;;;;;4934865;29;20570;-67
2023/08/09 04:55:19;;;;;;;4.80;1.40;;;;;;;;;;4934607;29;20830;-67
2023/08/09 04:57:46;;;;;;;4.20;2.03;;;;;;;;;;4935910;29;20538;-66
2023/08/09 05:00:14;;;;;;;2.43;1.17;;;;;;;;;;4933556;29;20451;-66
2023/08/09 05:02:41;;;;;;;2.50;1.20;;;;;;;;;;4933037;29;20471;-66
2023/08/09 05:05:09;;;;;;;2.20;1.30;;;;;;;;;;4933601;29;21022;-66
2023/08/09 05:07:39;;;;;;;2.27;0.97;;;;;;;;;;4931282;29;20470;-66
2023/08/09 05:10:07;;;;;;;3.20;1.20;;;;;;;;;;4934829;29;20475;-67
2023/08/09 05:12:34;;;;;;;6.53;1.37;;;;;;;;;;4931191;29;20474;-66
2023/08/09 05:15:01;;;;;;;1.77;0.80;;;;;;;;;;4935295;29;20550;-67
2023/08/09 05:17:28;;;;;;;2.70;1.33;;;;;;;;;;4932401;29;20488;-67
2023/08/09 05:19:55;;;;;;;2.00;1.03;;;;;;;;;;4935672;29;20957;-66
2023/08/09 05:22:23;;;;;;;2.33;1.10;;;;;;;;;;4932703;29;20475;-66
2023/08/09 05:24:51;;;;;;;1.83;0.93;;;;;;;;;;4933609;29;20487;-67
2023/08/09 05:27:18;;;;;;;3.50;1.40;;;;;;;;;;4929628;29;20474;-67
2023/08/09 05:29:45;;;;;;;2.00;1.17;;;;;;;;;;4935292;29;20494;-67
2023/08/09 05:32:13;;;;;;;1.57;0.80;;;;;;;;;;4931120;29;21009;-66
2023/08/09 05:34:40;;;;;;;2.03;1.00;;;;;;;;;;4934425;29;20506;-66
2023/08/09 05:37:07;;;;;;;2.40;1.40;;;;;;;;;;4932984;29;20460;-66
2023/08/09 05:39:34;;;;;;;2.50;1.00;;;;;;;;;;4934978;29;20452;-67
2023/08/09 05:42:03;;;;;;;2.27;1.30;;;;;;;;;;4934109;29;20944;-66
2023/08/09 05:44:30;;;;;;;2.90;1.17;;;;;;;;;;4933470;29;20455;-66
2023/08/09 05:46:57;;;;;;;3.33;1.13;;;;;;;;;;4936536;29;20566;-66
2023/08/09 05:49:24;;;;;;;2.53;1.20;;;;;;;;;;4935214;29;20908;-66
2023/08/09 05:51:52;;;;;;;3.23;1.20;;;;;;;;;;4936479;29;20477;-66
2023/08/09 05:54:19;;;;;;;2.00;1.10;;;;;;;;;;4935061;29;20477;-66
2023/08/09 05:56:46;;;;;;;2.90;1.20;;;;;;;;;;4936031;29;20531;-67
2023/08/09 05:59:15;;;;;;;1.70;0.93;;;;;;;;;;4933600;29;20439;-66
2023/08/09 06:01:42;;;;;;;1.73;0.97;;;;;;;;;;4932487;29;21270;-66
2023/08/09 06:04:09;;;;;;;1.83;1.10;;;;;;;;;;4934246;29;20934;-66
2023/08/09 06:06:36;;;;;;;2.40;1.20;;;;;;;;;;4932220;29;20571;-66
2023/08/09 06:09:05;;;;;;;2.07;1.07;;;;;;;;;;4933443;29;20476;-67
2023/08/09 06:11:33;;;;;;;1.83;1.00;;;;;;;;;;4934980;29;20482;-66
2023/08/09 06:14:01;;;;;;;1.97;1.00;;;;;;;;;;4935519;29;20455;-66
2023/08/09 06:16:29;;;;;;;2.13;0.97;;;;;;;;;;4934822;29;20460;-66
2023/08/09 06:18:57;;;;;;;1.93;0.90;;;;;;;;;;4933133;29;20558;-66
2023/08/09 06:21:24;;;;;;;3.37;0.97;;;;;;;;;;4934311;29;20487;-66
2023/08/09 06:23:51;;;;;;;1.93;1.00;;;;;;;;;;4936143;29;21005;-66
2023/08/09 06:26:18;;;;;;;3.03;1.30;;;;;;;;;;4934939;29;20570;-66
2023/08/09 06:28:45;;;;;;;1.90;1.13;;;;;;;;;;4935371;29;20498;-67
2023/08/09 06:31:13;;;;;;;1.60;0.90;;;;;;;;;;4934584;29;20538;-66
2023/08/09 06:33:42;;;;;;;1.97;1.10;;;;;;;;;;4934509;29;20947;-67
2023/08/09 06:36:10;;;;;;;2.00;1.00;;;;;;;;;;4934511;29;20953;-66
2023/08/09 06:38:37;;;;;;;2.57;1.10;;;;;;;;;;4936045;29;20436;-67
2023/08/09 06:41:04;;;;;;;3.70;1.30;;;;;;;;;;4937450;29;20511;-67
2023/08/09 06:43:31;;;;;;;1.90;0.90;;;;;;;;;;4938375;29;20438;-67
2023/08/09 06:45:59;;;;;;;2.17;0.90;;;;;;;;;;4937701;29;20482;-67
2023/08/09 06:48:29;;;;;;;2.50;0.80;;;;;;;;;;4937458;29;20487;-66
2023/08/09 06:51:02;;;;;;;2.47;0.97;;;;;;;;;;4938562;29;20447;-66
2023/08/09 06:53:29;;;;;;;1.73;1.00;;;;;;;;;;4935495;29;20493;-67
2023/08/09 06:55:56;;;;;;;2.10;0.80;;;;;;;;;;4931834;29;20523;-67
2023/08/09 06:58:24;;;;;;;2.10;1.10;;;;;;;;;;4934639;29;20989;-67
2023/08/09 07:00:51;;;;;;;2.10;1.00;;;;;;;;;;4937897;29;20467;-67
2023/08/09 07:03:18;;;;;;;1.83;0.90;;;;;;;;;;4937755;29;20535;-67
2023/08/09 07:05:45;;;;;;;1.60;1.03;;;;;;;;;;4938158;29;20583;-67
2023/08/09 07:08:13;;;;;;;2.43;1.10;;;;;;;;;;4935907;29;20550;-66
2023/08/09 07:10:40;;;;;;;3.83;0.90;;;;;;;;;;4937697;29;20917;-66
2023/08/09 07:13:09;;;;;;;2.37;1.20;;;;;;;;;;4936345;29;20534;-66
2023/08/09 07:15:37;;;;;;;2.50;0.70;;;;;;;;;;4936941;29;20864;-66
2023/08/09 07:18:04;;;;;;;3.90;1.07;;;;;;;;;;4936300;29;20475;-66
2023/08/09 07:20:31;;;;;;;2.07;1.00;;;;;;;;;;4937407;29;20451;-66
2023/08/09 07:22:58;;;;;;;1.60;0.93;;;;;;;;;;4936527;29;20487;-66
2023/08/09 07:25:27;;;;;;;2.00;0.90;;;;;;;;;;4938815;28;20448;-66
2023/08/09 07:27:54;;;;;;;2.20;1.10;;;;;;;;;;4937378;29;20526;-66
2023/08/09 07:30:21;;;;;;;2.43;0.97;;;;;;;;;;4937766;29;20581;-66
2023/08/09 07:32:49;;;;;;;1.83;0.90;;;;;;;;;;4935769;29;20464;-66
2023/08/09 07:35:17;;;;;;;2.43;0.80;;;;;;;;;;4931179;29;20451;-66
2023/08/09 07:37:45;;;;;;;2.00;0.80;;;;;;;;;;4935023;29;20782;-66
2023/08/09 07:40:13;;;;;;;1.67;0.73;;;;;;;;;;4935679;28;21046;-66
2023/08/09 07:42:42;;;;;;;1.93;1.07;;;;;;;;;;4939390;29;20475;-68
2023/08/09 07:45:10;;;;;;;2.40;1.40;;;;;;;;;;4938706;29;20459;-68
2023/08/09 07:47:37;;;;;;;3.73;1.20;;;;;;;;;;4936177;29;21024;-67
2023/08/09 07:50:05;;;;;;;3.00;1.30;;;;;;;;;;4933363;29;20493;-67
2023/08/09 07:52:32;;;;;;;3.60;1.00;;;;;;;;;;4931867;28;20479;-67
2023/08/09 07:54:59;;;;;;;1.73;0.70;;;;;;;;;;4936339;29;20554;-67
2023/08/09 07:57:26;;;;;;;3.07;0.97;;;;;;;;;;4935034;29;20466;-67
2023/08/09 07:59:55;;;;;;;1.70;1.10;;;;;;;;;;4937204;29;20482;-67
2023/08/09 08:02:22;;;;;;;2.63;0.90;;;;;;;;;;4939864;29;20778;-68
2023/08/09 08:04:49;;;;;;;4.20;1.00;;;;;;;;;;4939624;29;20440;-67
2023/08/09 08:07:17;;;;;;;1.60;0.80;;;;;;;;;;4935983;29;20802;-67
2023/08/09 08:09:45;;;;;;;3.37;1.50;;;;;;;;;;4934678;29;20448;-67
2023/08/09 08:12:13;;;;;;;1.90;1.23;;;;;;;;;;4936675;29;20463;-67
2023/08/09 08:14:41;;;;;;;2.93;1.20;;;;;;;;;;4936717;29;20436;-67
2023/08/09 08:17:09;;;;;;;6.60;1.17;;;;;;;;;;4934338;29;20972;-67
2023/08/09 08:19:36;;;;;;;1.80;1.03;;;;;;;;;;4937022;28;20474;-67
2023/08/09 08:22:05;;;;;;;1.90;0.90;;;;;;;;;;4933948;29;20491;-67
2023/08/09 08:24:33;;;;;;;1.63;1.07;;;;;;;;;;4935144;29;20465;-66
2023/08/09 08:27:00;;;;;;;1.80;0.93;;;;;;;;;;4935502;29;20479;-68
2023/08/09 08:29:27;;;;;;;1.73;1.00;;;;;;;;;;4935278;29;20444;-68
2023/08/09 08:31:54;;;;;;;2.20;1.07;;;;;;;;;;4933514;29;20518;-67
2023/08/09 08:34:23;;;;;;;2.87;1.20;;;;;;;;;;4933785;29;20460;-67
2023/08/09 08:36:50;;;;;;;1.60;0.93;;;;;;;;;;4937382;29;20578;-67
2023/08/09 08:39:19;;;;;;;2.43;1.00;;;;;;;;;;4935596;29;20542;-67
2023/08/09 08:41:49;;;;;;;1.80;0.80;;;;;;;;;;4933338;29;20487;-67
2023/08/09 08:44:16;;;;;;;2.33;1.00;;;;;;;;;;4934399;29;20448;-67
2023/08/09 08:46:43;;;;;;;2.00;1.20;;;;;;;;;;4933598;29;20527;-68
2023/08/09 08:49:14;;;;;;;2.00;0.90;;;;;;;;;;4936141;29;20448;-67
2023/08/09 08:51:44;;;;;;;1.83;0.80;;;;;;;;;;4928308;29;20538;-68
2023/08/09 08:54:12;;;;;;;1.80;1.00;;;;;;;;;;4931505;29;20479;-67
2023/08/09 08:56:39;;;;;;;1.60;0.93;;;;;;;;;;4933409;29;20459;-66
2023/08/09 08:59:08;;;;;;;2.00;0.77;;;;;;;;;;4932799;29;20467;-68
2023/08/09 09:01:35;;;;;;;2.20;1.00;;;;;;;;;;4930717;29;20494;-66
2023/08/09 09:04:02;;;;;;;4.33;1.20;;;;;;;;;;4932916;29;20455;-66
2023/08/09 09:06:30;;;;;;;2.10;1.07;;;;;;;;;;4934934;29;20486;-66
2023/08/09 09:08:59;;;;;;;1.73;0.80;;;;;;;;;;4931881;29;20864;-66
2023/08/09 09:11:26;;;;;;;2.07;0.93;;;;;;;;;;4932252;29;20480;-65
2023/08/09 09:13:54;;;;;;;1.93;0.87;;;;;;;;;;4935224;29;21093;-65
2023/08/09 09:16:24;;;;;;;2.17;0.93;;;;;;;;;;4932130;29;20563;-66
2023/08/09 09:18:51;;;;;;;1.93;0.90;;;;;;;;;;4933658;29;20454;-66
2023/08/09 09:21:18;;;;;;;1.70;1.00;;;;;;;;;;4932453;29;20492;-66
2023/08/09 09:23:46;;;;;;;1.40;0.90;;;;;;;;;;4924824;29;20482;-66
2023/08/09 09:26:15;;;;;;;2.37;0.93;;;;;;;;;;4932419;29;20462;-67
2023/08/09 09:28:44;;;;;;;1.80;0.93;;;;;;;;;;4932033;29;20547;-67
2023/08/09 09:31:12;;;;;;;2.23;1.23;;;;;;;;;;4928432;29;20460;-67
2023/08/09 09:33:40;;;;;;;1.70;0.80;;;;;;;;;;4931195;29;20470;-66
2023/08/09 09:36:11;;;;;;;1.50;0.87;;;;;;;;;;4933957;29;20447;-66
2023/08/09 09:38:38;;;;;;;2.27;1.47;;;;;;;;;;4923819;29;20459;-67
2023/08/09 09:41:07;;;;;;;2.33;1.20;;;;;;;;;;4930102;29;21091;-67
2023/08/09 09:43:38;;;;;;;2.70;1.30;;;;;;;;;;4931236;29;20448;-67
2023/08/09 09:46:06;;;;;;;1.70;1.23;;;;;;;;;;4931028;29;21042;-67
2023/08/09 09:48:33;;;;;;;2.90;1.17;;;;;;;;;;4929077;29;20656;-67
2023/08/09 09:51:02;;;;;;;4.53;1.43;;;;;;;;;;4929097;29;20543;-67
2023/08/09 09:53:30;;;;;;;1.97;1.10;;;;;;;;;;4927874;29;20460;-67
2023/08/09 09:55:57;;;;;;;2.17;1.20;;;;;;;;;;4931742;29;20720;-67
2023/08/09 09:58:24;;;;;;;2.80;1.10;;;;;;;;;;4932369;29;20876;-67
2023/08/09 10:00:57;;;;;;;1.70;1.27;;;;;;;;;;4928797;29;20455;-67
2023/08/09 10:03:25;;;;;;;2.10;1.30;;;;;;;;;;4930964;29;20931;-67
2023/08/09 10:05:53;;;;;;;1.50;0.80;;;;;;;;;;4930961;29;20490;-67
2023/08/09 10:08:21;;;;;;;2.83;1.40;;;;;;;;;;4929547;29;20570;-67
2023/08/09 10:10:51;;;;;;;1.33;0.70;;;;;;;;;;4928532;29;20582;-67
2023/08/09 10:13:20;;;;;;;2.03;0.97;;;;;;;;;;4932736;29;20472;-67
2023/08/09 10:15:48;;;;;;;1.90;1.00;;;;;;;;;;4935887;29;20834;-67
2023/08/09 10:18:20;;;;;;;2.27;1.10;;;;;;;;;;4933822;29;20795;-67
2023/08/09 10:20:51;;;;;;;1.67;0.90;;;;;;;;;;4933750;29;20771;-67
2023/08/09 10:23:20;;;;;;;1.57;0.90;;;;;;;;;;4931944;29;20566;-67
2023/08/09 10:25:48;;;;;;;3.00;1.40;;;;;;;;;;4938579;29;20493;-67
2023/08/09 10:28:17;;;;;;;1.40;0.83;;;;;;;;;;4936409;29;20486;-67
2023/08/09 10:30:45;;;;;;;1.70;1.00;;;;;;;;;;4933016;29;20460;-66
2023/08/09 10:33:18;;;;;;;2.33;1.10;;;;;;;;;;4932860;28;20486;-68
2023/08/09 10:35:47;;;;;;;1.77;0.80;;;;;;;;;;4928685;29;20462;-68
2023/08/09 10:38:15;;;;;;;2.17;1.03;;;;;;;;;;4932575;29;20478;-68
2023/08/09 10:40:42;;;;;;;1.80;1.00;;;;;;;;;;4931763;29;20826;-67
2023/08/09 10:43:10;;;;;;;1.90;0.80;;;;;;;;;;4932936;29;20616;-67
2023/08/09 10:45:39;;;;;;;1.53;0.97;;;;;;;;;;4933194;29;20491;-67
2023/08/09 10:48:23;;;;;;;2.00;1.07;;;;;;;;;;4935171;29;20484;-67
2023/08/09 10:51:02;;;;;;;2.60;1.20;;;;;;;;;;4933461;29;20448;-67
2023/08/09 10:53:29;;;;;;;2.40;1.00;;;;;;;;;;4932757;29;21009;-67
2023/08/09 10:55:58;;;;;;;2.87;1.23;;;;;;;;;;4932322;29;20585;-67
2023/08/09 10:58:27;;;;;;;1.43;0.70;;;;;;;;;;4934756;29;20455;-67
2023/08/09 11:00:54;;;;;;;1.80;0.97;;;;;;;;;;4937090;29;20958;-67
2023/08/09 11:03:22;;;;;;;2.00;1.40;;;;;;;;;;4937191;28;20491;-67
2023/08/09 11:05:49;;;;;;;2.23;1.00;;;;;;;;;;4933463;29;20485;-67
2023/08/09 11:08:21;;;;;;;1.70;1.00;;;;;;;;;;4933130;29;20834;-69
2023/08/09 11:10:49;;;;;;;4.00;1.20;;;;;;;;;;4929805;29;20535;-67
2023/08/09 11:13:18;;;;;;;1.60;0.90;;;;;;;;;;4931235;29;20479;-67
2023/08/09 11:15:46;;;;;;;2.93;1.03;;;;;;;;;;4935806;29;20447;-67
2023/08/09 11:18:13;;;;;;;2.60;1.30;;;;;;;;;;4936522;29;20543;-67
2023/08/09 11:20:40;;;;;;;1.70;0.90;;;;;;;;;;4934756;29;20485;-67
2023/08/09 11:23:08;;;;;;;1.80;0.90;;;;;;;;;;4931247;29;20542;-67
2023/08/09 11:25:37;;;;;;;1.80;1.10;;;;;;;;;;4933479;29;20836;-67
2023/08/09 11:28:06;;;;;;;1.87;0.90;;;;;;;;;;4934021;29;20480;-67
2023/08/09 11:30:33;;;;;;;2.10;1.10;;;;;;;;;;4932909;29;20467;-67
2023/08/09 11:33:02;;;;;;;2.10;0.80;;;;;;;;;;4935938;29;20479;-67
2023/08/09 11:35:33;;;;;;;2.10;1.00;;;;;;;;;;4932345;29;20459;-67
2023/08/09 11:38:00;;;;;;;1.90;0.60;;;;;;;;;;4935055;29;20463;-67
2023/08/09 11:40:28;;;;;;;1.60;0.90;;;;;;;;;;4929776;29;20546;-68
2023/08/09 11:43:00;;;;;;;1.93;0.87;;;;;;;;;;4934475;29;20937;-67
2023/08/09 11:45:27;;;;;;;3.03;0.90;;;;;;;;;;4932333;29;20887;-67
2023/08/09 11:47:55;;;;;;;1.80;1.13;;;;;;;;;;4928097;29;20535;-67
2023/08/09 11:50:24;;;;;;;1.90;1.00;;;;;;;;;;4929382;29;20830;-67
2023/08/09 11:52:57;;;;;;;4.70;1.17;;;;;;;;;;4931807;29;20480;-67
2023/08/09 11:55:27;;;;;;;1.53;0.97;;;;;;;;;;4932483;29;20543;-67
2023/08/09 11:57:54;;;;;;;2.10;1.20;;;;;;;;;;4927023;29;20467;-67
2023/08/09 12:00:27;;;;;;;2.53;1.30;;;;;;;;;;4931477;29;20468;-67
2023/08/09 12:02:59;;;;;;;1.93;1.10;;;;;;;;;;4927820;29;20476;-67
2023/08/09 12:05:27;;;;;;;1.87;0.73;;;;;;;;;;4934070;29;20912;-66
2023/08/09 12:08:03;;;;;;;1.50;0.80;;;;;;;;;;4934247;29;20487;-67
2023/08/09 12:10:30;;;;;;;1.90;1.10;;;;;;;;;;4931939;29;20447;-67
2023/08/09 12:12:57;;;;;;;1.53;0.83;;;;;;;;;;4927814;29;20519;-67
2023/08/09 12:15:26;;;;;;;2.00;1.03;;;;;;;;;;4929229;29;20459;-67
2023/08/09 12:17:54;;;;;;;1.80;0.90;;;;;;;;;;4934791;29;20807;-67
2023/08/09 12:20:21;;;;;;;2.10;1.17;;;;;;;;;;4934537;29;20447;-67
2023/08/09 12:22:48;;;;;;;1.70;0.80;;;;;;;;;;4931028;29;20459;-67
2023/08/09 12:25:16;;;;;;;2.00;1.30;;;;;;;;;;4933579;29;20467;-66
2023/08/09 12:27:43;;;;;;;1.40;0.80;;;;;;;;;;4930003;29;20515;-66
2023/08/09 12:30:11;;;;;;;1.60;0.97;;;;;;;;;;4930309;29;20471;-67
2023/08/09 12:32:41;;;;;;;2.27;1.07;;;;;;;;;;4933742;29;20495;-65
2023/08/09 12:35:09;;;;;;;1.73;1.30;;;;;;;;;;4926854;29;20460;-66
2023/08/09 12:37:36;;;;;;;2.33;1.20;;;;;;;;;;4933264;29;20439;-66
2023/08/09 12:40:05;;;;;;;2.30;1.03;;;;;;;;;;4928986;29;20475;-65
2023/08/09 12:42:32;;;;;;;1.60;1.00;;;;;;;;;;4929685;29;20479;-67
2023/08/09 12:44:59;;;;;;;1.83;0.90;;;;;;;;;;4938447;29;20466;-67
2023/08/09 12:47:27;;;;;;;1.87;0.90;;;;;;;;;;4939262;29;20487;-67
2023/08/09 12:49:55;;;;;;;2.90;1.03;;;;;;;;;;4938699;29;20460;-67
2023/08/09 12:52:23;;;;;;;3.73;1.00;;;;;;;;;;4945931;29;20479;-67
2023/08/09 12:54:51;;;;;;;1.70;0.90;;;;;;;;;;4942435;29;21297;-68
2023/08/09 12:57:18;;;;;;;1.53;0.83;;;;;;;;;;4941374;29;20584;-67
2023/08/09 12:59:46;;;;;;;1.87;1.10;;;;;;;;;;4934791;29;20447;-67
2023/08/09 13:02:13;;;;;;;2.50;1.00;;;;;;;;;;4932720;29;20487;-67
2023/08/09 13:04:40;;;;;;;1.90;1.30;;;;;;;;;;4933701;29;20456;-67
2023/08/09 13:07:09;;;;;;;1.70;0.97;;;;;;;;;;4935733;29;20444;-67
2023/08/09 13:09:36;;;;;;;2.40;1.20;;;;;;;;;;4932059;29;20847;-67
2023/08/09 13:12:04;;;;;;;1.70;1.10;;;;;;;;;;4931204;29;20484;-67
2023/08/09 13:14:32;;;;;;;1.97;1.30;;;;;;;;;;4930351;29;20477;-68
2023/08/09 13:16:59;;;;;;;2.47;1.20;;;;;;;;;;4934102;29;20950;-67
2023/08/09 13:19:26;;;;;;;2.10;1.20;;;;;;;;;;4930423;29;20471;-68
2023/08/09 13:21:53;;;;;;;3.20;0.97;;;;;;;;;;4935414;29;20507;-68
2023/08/09 13:24:21;;;;;;;2.37;0.90;;;;;;;;;;4935366;29;20951;-68
2023/08/09 13:26:48;;;;;;;3.23;1.10;;;;;;;;;;4936056;29;20440;-67
2023/08/09 13:29:16;;;;;;;1.97;1.33;;;;;;;;;;4933115;29;21009;-67
2023/08/09 13:31:46;;;;;;;1.70;0.93;;;;;;;;;;4935512;29;20917;-67
2023/08/09 13:34:13;;;;;;;1.60;0.83;;;;;;;;;;4933276;29;20542;-67
2023/08/09 13:36:41;;;;;;;1.37;0.83;;;;;;;;;;4933506;29;20456;-68
2023/08/09 13:39:09;;;;;;;4.33;1.03;;;;;;;;;;4932489;29;20437;-68
2023/08/09 13:41:40;;;;;;;3.20;0.93;;;;;;;;;;4931180;29;20567;-68
2023/08/09 13:44:07;;;;;;;1.83;1.10;;;;;;;;;;4930768;29;20499;-68
2023/08/09 13:46:34;;;;;;;1.73;1.10;;;;;;;;;;4931046;29;21026;-66
2023/08/09 13:49:01;;;;;;;2.77;1.13;;;;;;;;;;4929433;29;20566;-67
2023/08/09 13:54:05;;;;;;;3.20;1.70;;;;;;;;;;5162623;23;20912;-68
2023/08/09 13:56:32;;;;;;;2.60;1.37;;;;;;;;;;4903245;29;20464;-66
2023/08/09 13:59:01;;;;;;;2.30;1.20;;;;;;;;;;4907211;29;20452;-65
2023/08/09 14:01:28;;;;;;;2.07;1.10;;;;;;;;;;4907445;29;20484;-67
2023/08/09 14:03:55;;;;;;;2.63;1.20;;;;;;;;;;4908423;29;21009;-67
2023/08/09 14:06:22;;;;;;;1.73;1.17;;;;;;;;;;4912561;29;20454;-67
2023/08/09 14:08:49;;;;;;;2.17;1.03;;;;;;;;;;4911058;29;20483;-67
2023/08/09 14:11:17;;;;;;;1.93;0.93;;;;;;;;;;4912617;29;20453;-66
2023/08/09 14:13:44;;;;;;;2.00;1.27;;;;;;;;;;4914101;29;20469;-67
2023/08/09 14:16:12;;;;;;;1.70;1.10;;;;;;;;;;4911910;29;20786;-67
2023/08/09 14:18:40;;;;;;;1.97;1.30;;;;;;;;;;4914733;29;20807;-67
2023/08/09 14:21:07;;;;;;;2.57;1.53;;;;;;;;;;4913139;29;20457;-67
2023/08/09 14:23:34;;;;;;;1.97;0.80;;;;;;;;;;4914695;29;20449;-67
2023/08/09 14:26:01;;;;;;;1.93;1.17;;;;;;;;;;4915972;29;20805;-67
2023/08/09 14:28:29;;;;;;;1.90;1.10;;;;;;;;;;4913223;29;20480;-66
2023/08/09 14:30:56;;;;;;;1.50;0.90;;;;;;;;;;4914812;29;20465;-67
2023/08/09 14:33:25;;;;;;;3.03;1.40;;;;;;;;;;4913809;29;20460;-67
2023/08/09 14:35:52;;;;;;;2.10;0.83;;;;;;;;;;4912846;29;20839;-68
2023/08/09 14:38:19;;;;;;;2.33;0.93;;;;;;;;;;4916723;29;20447;-69
2023/08/09 14:40:47;;;;;;;1.60;1.07;;;;;;;;;;4915095;29;20456;-67
2023/08/09 14:43:14;;;;;;;1.90;1.20;;;;;;;;;;4915929;29;20463;-66
2023/08/09 14:45:41;;;;;;;1.90;1.03;;;;;;;;;;4913851;29;20452;-67
2023/08/09 14:48:08;;;;;;;2.10;1.20;;;;;;;;;;4911696;29;20481;-67
2023/08/09 14:50:36;;;;;;;1.73;1.10;;;;;;;;;;4912600;29;20461;-68